createdAt,value
2022-10-19T00:01:23.922Z,9.20
2022-10-19T00:03:55.020Z,9.20
2022-10-19T00:06:25.826Z,9.20
2022-10-19T00:08:54.940Z,9.10
2022-10-19T00:11:23.665Z,9.10
2022-10-19T00:13:51.721Z,9.10
2022-10-19T00:16:19.805Z,9.10
2022-10-19T00:18:47.763Z,9.10
2022-10-19T00:21:19.029Z,9.10
2022-10-19T00:23:47.572Z,9.10
2022-10-19T00:26:15.628Z,9.00
2022-10-19T00:28:44.008Z,9.00
2022-10-19T00:31:22.024Z,8.90
2022-10-19T00:33:50.124Z,8.90
2022-10-19T00:36:27.229Z,8.90
2022-10-19T00:38:56.473Z,8.90
2022-10-19T00:41:27.074Z,8.90
2022-10-19T00:43:58.185Z,8.90
2022-10-19T00:46:27.841Z,8.90
2022-10-19T00:49:07.117Z,8.90
2022-10-19T00:51:45.441Z,8.90
2022-10-19T00:54:18.077Z,8.90
2022-10-19T00:56:48.444Z,8.90
2022-10-19T01:02:06.067Z,9.00
2022-10-19T01:04:37.546Z,8.90
2022-10-19T01:07:07.963Z,9.00
2022-10-19T01:09:37.390Z,9.00
2022-10-19T01:12:12.073Z,9.10
2022-10-19T01:14:51.419Z,9.10
2022-10-19T01:17:30.662Z,9.20
2022-10-19T01:20:34.710Z,9.20
2022-10-19T01:23:51.192Z,9.20
2022-10-19T01:26:38.147Z,9.30
2022-10-19T01:29:16.031Z,9.30
2022-10-19T01:31:49.276Z,9.30
2022-10-19T01:34:24.187Z,9.40
2022-10-19T01:37:00.883Z,9.40
2022-10-19T01:39:39.650Z,9.50
2022-10-19T01:42:15.681Z,9.50
2022-10-19T01:44:51.711Z,9.50
2022-10-19T01:47:30.145Z,9.50
2022-10-19T01:50:05.601Z,9.50
2022-10-19T01:52:34.562Z,9.50
2022-10-19T01:55:06.741Z,9.40
2022-10-19T01:57:37.939Z,9.40
2022-10-19T02:00:09.959Z,9.40
2022-10-19T02:02:43.056Z,9.30
2022-10-19T02:05:14.146Z,9.20
2022-10-19T02:07:47.338Z,9.10
2022-10-19T02:10:15.546Z,9.10
2022-10-19T02:12:44.458Z,9.10
2022-10-19T02:15:16.164Z,9.10
2022-10-19T02:17:48.278Z,9.00
2022-10-19T02:20:17.139Z,8.90
2022-10-19T02:22:45.343Z,8.90
2022-10-19T02:25:13.837Z,8.80
2022-10-19T02:27:43.074Z,8.70
2022-10-19T02:30:12.246Z,8.70
2022-10-19T02:32:40.396Z,8.70
2022-10-19T02:35:11.112Z,8.70
2022-10-19T02:37:39.144Z,8.70
2022-10-19T02:40:08.310Z,8.70
2022-10-19T02:42:40.631Z,8.60
2022-10-19T02:45:12.446Z,8.50
2022-10-19T02:47:45.472Z,8.40
2022-10-19T02:50:15.200Z,8.40
2022-10-19T02:52:43.165Z,8.40
2022-10-19T02:55:11.289Z,8.40
2022-10-19T02:57:39.189Z,8.30
2022-10-19T03:00:08.741Z,8.30
2022-10-19T03:02:36.650Z,8.30
2022-10-19T03:05:05.383Z,8.20
2022-10-19T03:07:35.131Z,8.10
2022-10-19T03:10:03.303Z,8.10
2022-10-19T03:12:31.125Z,8.00
2022-10-19T03:14:59.001Z,8.00
2022-10-19T03:17:26.937Z,7.90
2022-10-19T03:19:54.815Z,7.90
2022-10-19T03:22:22.825Z,7.90
2022-10-19T03:24:52.054Z,7.90
2022-10-19T03:27:20.214Z,7.90
2022-10-19T03:29:48.069Z,8.00
2022-10-19T03:32:15.935Z,8.00
2022-10-19T03:34:43.804Z,8.00
2022-10-19T03:37:13.347Z,7.90
2022-10-19T03:39:41.193Z,7.90
2022-10-19T03:42:10.462Z,7.90
2022-10-19T03:44:38.403Z,7.80
2022-10-19T03:47:11.378Z,7.80
2022-10-19T03:49:40.590Z,7.80
2022-10-19T03:52:10.013Z,7.80
2022-10-19T03:54:39.232Z,7.80
2022-10-19T03:57:07.120Z,7.80
2022-10-19T04:00:40.361Z,7.80
2022-10-19T04:03:09.246Z,7.80
2022-10-19T04:05:37.966Z,7.70
2022-10-19T04:08:06.308Z,7.70
2022-10-19T04:10:34.280Z,7.70
2022-10-19T04:13:02.126Z,7.70
2022-10-19T04:15:31.673Z,7.60
2022-10-19T04:17:59.501Z,7.60
2022-10-19T04:20:29.691Z,7.60
2022-10-19T04:22:57.512Z,7.50
2022-10-19T04:25:35.784Z,7.50
2022-10-19T04:28:03.662Z,7.50
2022-10-19T04:30:32.938Z,7.50
2022-10-19T04:33:00.773Z,7.50
2022-10-19T04:35:31.374Z,7.40
2022-10-19T04:38:02.368Z,7.40
2022-10-19T04:40:30.176Z,7.40
2022-10-19T04:43:19.462Z,7.30
2022-10-19T04:49:35.977Z,7.40
2022-10-19T04:52:05.337Z,7.40
2022-10-19T04:54:42.418Z,7.40
2022-10-19T04:57:11.612Z,7.40
2022-10-19T05:00:04.741Z,7.40
2022-10-19T05:02:32.590Z,7.50
2022-10-19T05:05:01.891Z,7.50
2022-10-19T05:07:29.774Z,7.50
2022-10-19T05:09:58.613Z,7.40
2022-10-19T05:12:26.447Z,7.40
2022-10-19T05:14:54.334Z,7.40
2022-10-19T05:17:22.211Z,7.40
2022-10-19T05:19:52.322Z,7.40
2022-10-19T05:22:25.112Z,7.40
2022-10-19T05:34:16.935Z,7.30
2022-10-19T05:36:47.568Z,7.20
2022-10-19T05:39:18.459Z,7.20
2022-10-19T05:41:49.519Z,7.20
2022-10-19T05:44:19.435Z,7.10
2022-10-19T05:46:47.844Z,7.10
2022-10-19T05:49:23.906Z,7.20
2022-10-19T05:51:56.964Z,7.20
2022-10-19T05:54:28.872Z,7.10
2022-10-19T05:56:57.196Z,7.10
2022-10-19T05:59:25.585Z,7.10
2022-10-19T06:01:55.886Z,7.10
2022-10-19T06:07:07.685Z,7.10
2022-10-19T06:09:40.032Z,7.10
2022-10-19T06:12:07.939Z,7.20
2022-10-19T06:17:19.112Z,7.20
2022-10-19T06:19:46.991Z,7.20
2022-10-19T06:22:28.591Z,7.30
2022-10-19T06:24:57.845Z,7.30
2022-10-19T06:27:25.753Z,7.30
2022-10-19T06:29:53.663Z,7.30
2022-10-19T06:32:21.470Z,7.30
2022-10-19T06:34:50.831Z,7.40
2022-10-19T06:37:20.891Z,7.40
2022-10-19T06:42:31.188Z,7.40
2022-10-19T06:44:59.040Z,7.40
2022-10-19T06:47:31.321Z,7.50
2022-10-19T06:49:59.302Z,7.60
2022-10-19T06:52:27.146Z,7.60
2022-10-19T06:54:55.057Z,7.70
2022-10-19T06:57:22.873Z,7.80
2022-10-19T06:59:53.682Z,7.90
2022-10-19T07:02:21.774Z,8.00
2022-10-19T07:04:49.615Z,8.10
2022-10-19T07:07:17.525Z,8.10
2022-10-19T07:09:45.441Z,8.20
2022-10-19T07:12:13.242Z,8.30
2022-10-19T07:14:41.189Z,8.40
2022-10-19T07:17:12.333Z,8.60
2022-10-19T07:19:40.158Z,8.70
2022-10-19T07:22:07.955Z,8.80
2022-10-19T07:24:35.803Z,8.90
2022-10-19T07:27:03.768Z,9.00
2022-10-19T07:29:31.736Z,9.10
2022-10-19T07:31:59.547Z,9.20
2022-10-19T07:34:29.191Z,9.30
2022-10-19T07:36:57.126Z,9.40
2022-10-19T07:39:25.121Z,9.50
2022-10-19T07:41:52.978Z,9.50
2022-10-19T07:44:20.798Z,9.60
2022-10-19T07:46:48.678Z,9.80
2022-10-19T07:49:18.922Z,9.90
2022-10-19T07:51:49.122Z,10.00
2022-10-19T07:54:16.957Z,10.10
2022-10-19T07:56:45.193Z,10.10
2022-10-19T08:03:31.625Z,10.30
2022-10-19T08:05:48.278Z,10.30
2022-10-19T08:08:17.420Z,10.40
2022-10-19T08:10:45.306Z,10.50
2022-10-19T08:13:18.083Z,10.60
2022-10-19T08:15:57.866Z,10.70
2022-10-19T08:21:41.009Z,10.80
2022-10-19T08:24:41.874Z,10.80
2022-10-19T08:27:12.025Z,10.90
2022-10-19T08:29:51.885Z,11.00
2022-10-19T08:32:21.725Z,11.00
2022-10-19T08:34:51.045Z,11.10
2022-10-19T08:37:40.162Z,11.10
2022-10-19T08:40:21.884Z,11.20
2022-10-19T08:42:59.477Z,11.20
2022-10-19T08:45:46.582Z,11.20
2022-10-19T08:51:45.151Z,11.30
2022-10-19T08:54:26.448Z,11.30
2022-10-19T08:57:22.575Z,11.40
2022-10-19T09:00:04.326Z,11.40
2022-10-19T09:02:48.739Z,11.40
2022-10-19T09:05:25.313Z,11.50
2022-10-19T09:07:59.425Z,11.50
2022-10-19T09:10:30.198Z,11.60
2022-10-19T09:16:07.037Z,11.70
2022-10-19T09:21:16.768Z,11.80
2022-10-19T09:23:49.452Z,11.80
2022-10-19T09:26:28.275Z,11.80
2022-10-19T09:29:01.424Z,11.90
2022-10-19T09:31:35.925Z,11.90
2022-10-19T09:34:13.829Z,12.00
2022-10-19T09:36:50.414Z,12.00
2022-10-19T09:39:19.590Z,12.00
2022-10-19T09:41:50.706Z,12.10
2022-10-19T09:44:20.373Z,12.20
2022-10-19T09:46:52.813Z,12.20
2022-10-19T09:49:21.911Z,12.20
2022-10-19T09:51:52.219Z,12.30
2022-10-19T09:54:26.535Z,12.30
2022-10-19T09:56:56.491Z,12.30
2022-10-19T09:59:31.656Z,12.30
2022-10-19T10:02:15.693Z,12.30
2022-10-19T10:04:47.741Z,12.30
2022-10-19T10:07:18.552Z,12.30
2022-10-19T10:09:47.390Z,12.30
2022-10-19T10:12:16.771Z,12.30
2022-10-19T10:14:46.517Z,12.30
2022-10-19T10:17:18.337Z,12.40
2022-10-19T10:20:03.926Z,12.40
2022-10-19T10:22:34.100Z,12.40
2022-10-19T10:25:03.053Z,12.40
2022-10-19T10:27:34.134Z,12.40
2022-10-19T10:30:08.273Z,12.40
2022-10-19T10:32:42.184Z,12.40
2022-10-19T10:35:26.780Z,12.40
2022-10-19T10:38:23.405Z,12.40
2022-10-19T10:40:53.841Z,12.50
2022-10-19T10:43:25.014Z,12.40
2022-10-19T10:45:55.654Z,12.50
2022-10-19T10:48:41.308Z,12.60
2022-10-19T10:52:06.536Z,12.60
2022-10-19T10:54:34.705Z,12.60
2022-10-19T10:57:13.685Z,12.60
2022-10-19T10:59:53.027Z,12.60
2022-10-19T11:02:51.328Z,12.60
2022-10-19T11:05:22.878Z,12.70
2022-10-19T11:08:07.393Z,12.70
2022-10-19T11:10:45.682Z,12.70
2022-10-19T11:13:18.848Z,12.80
2022-10-19T11:15:55.166Z,12.80
2022-10-19T11:18:31.781Z,12.80
2022-10-19T11:21:28.383Z,12.80
2022-10-19T11:24:49.647Z,12.80
2022-10-19T11:27:34.497Z,12.90
2022-10-19T11:30:11.566Z,13.00
2022-10-19T11:33:16.521Z,13.10
2022-10-19T11:35:54.910Z,13.10
2022-10-19T11:42:01.701Z,13.10
2022-10-19T11:44:41.606Z,13.20
2022-10-19T11:47:38.924Z,13.20
2022-10-19T11:50:36.608Z,13.20
2022-10-19T11:53:34.948Z,13.30
2022-10-19T11:56:16.611Z,13.40
2022-10-19T11:58:54.468Z,13.40
2022-10-19T12:01:31.778Z,13.50
2022-10-19T12:04:58.184Z,13.50
2022-10-19T12:07:41.373Z,13.50
2022-10-19T12:10:31.409Z,13.50
2022-10-19T12:13:22.907Z,13.50
2022-10-19T12:16:28.333Z,13.50
2022-10-19T12:19:00.831Z,13.50
2022-10-19T12:21:39.756Z,13.60
2022-10-19T12:24:26.978Z,13.60
2022-10-19T12:27:05.058Z,13.60
2022-10-19T12:29:37.957Z,13.60
2022-10-19T12:35:23.578Z,13.60
2022-10-19T12:38:02.614Z,13.70
2022-10-19T12:40:54.749Z,13.60
2022-10-19T12:43:38.446Z,13.60
2022-10-19T12:46:18.971Z,13.60
2022-10-19T12:48:49.224Z,13.50
2022-10-19T12:51:27.235Z,13.50
2022-10-19T12:54:24.509Z,13.50
2022-10-19T13:00:19.009Z,13.60
2022-10-19T13:02:51.001Z,13.70
2022-10-19T13:05:29.440Z,13.70
2022-10-19T13:08:20.283Z,13.70
2022-10-19T13:11:18.800Z,13.70
2022-10-19T13:14:09.160Z,13.70
2022-10-19T13:17:08.959Z,13.80
2022-10-19T13:19:44.757Z,13.80
2022-10-19T13:22:42.229Z,13.80
2022-10-19T13:26:16.668Z,13.90
2022-10-19T13:28:59.896Z,13.90
2022-10-19T13:31:34.057Z,13.90
2022-10-19T13:34:25.682Z,13.90
2022-10-19T13:37:19.924Z,13.90
2022-10-19T13:39:53.616Z,13.90
2022-10-19T13:45:25.463Z,13.90
2022-10-19T13:48:07.260Z,13.90
2022-10-19T13:53:42.339Z,13.90
2022-10-19T13:56:38.827Z,14.00
2022-10-19T13:59:48.703Z,14.00
2022-10-19T14:02:59.970Z,14.00
2022-10-19T14:05:58.546Z,13.90
2022-10-19T14:09:06.461Z,13.90
2022-10-19T14:11:42.055Z,13.90
2022-10-19T14:14:20.934Z,14.00
2022-10-19T14:16:57.235Z,14.10
2022-10-19T14:19:41.346Z,14.10
2022-10-19T14:22:28.162Z,14.00
2022-10-19T14:25:27.038Z,14.10
2022-10-19T14:28:05.948Z,14.10
2022-10-19T14:30:39.044Z,14.10
2022-10-19T14:33:14.466Z,14.10
2022-10-19T14:38:35.804Z,14.10
2022-10-19T14:41:05.946Z,14.10
2022-10-19T14:43:38.035Z,14.20
2022-10-19T14:46:17.182Z,14.20
2022-10-19T14:48:46.883Z,14.20
2022-10-19T14:51:34.892Z,14.20
2022-10-19T14:54:24.974Z,14.10
2022-10-19T14:56:59.838Z,14.10
2022-10-19T14:59:34.143Z,14.10
2022-10-19T15:05:06.927Z,14.00
2022-10-19T15:07:50.077Z,13.90
2022-10-19T15:10:36.289Z,13.90
2022-10-19T15:13:12.637Z,13.80
2022-10-19T15:15:46.802Z,13.80
2022-10-19T15:18:43.939Z,13.80
2022-10-19T15:21:34.919Z,13.70
2022-10-19T15:24:26.119Z,13.70
2022-10-19T15:27:12.502Z,13.60
2022-10-19T15:30:08.264Z,13.60
2022-10-19T15:32:38.392Z,13.50
2022-10-19T15:35:16.418Z,13.50
2022-10-19T15:40:50.398Z,13.40
2022-10-19T15:43:53.821Z,13.30
2022-10-19T15:46:32.893Z,13.30
2022-10-19T15:49:04.637Z,13.30
2022-10-19T15:54:39.768Z,13.20
2022-10-19T15:57:28.319Z,13.10
2022-10-19T16:03:28.170Z,13.00
2022-10-19T16:06:01.316Z,13.00
2022-10-19T16:08:29.441Z,12.90
2022-10-19T16:11:32.741Z,12.90
2022-10-19T16:14:23.357Z,12.80
2022-10-19T16:17:02.092Z,12.80
2022-10-19T16:22:41.178Z,12.60
2022-10-19T16:25:09.976Z,12.60
2022-10-19T16:27:47.621Z,12.60
2022-10-19T16:30:58.522Z,12.60
2022-10-19T16:33:30.737Z,12.50
2022-10-19T16:36:20.983Z,12.50
2022-10-19T16:38:54.851Z,12.40
2022-10-19T16:41:26.653Z,12.40
2022-10-19T16:44:03.214Z,12.40
2022-10-19T16:46:34.552Z,12.30
2022-10-19T16:49:19.854Z,12.40
2022-10-19T16:52:02.006Z,12.30
2022-10-19T16:54:38.125Z,12.30
2022-10-19T16:57:22.235Z,12.30
2022-10-19T16:59:55.664Z,12.30
2022-10-19T17:02:25.118Z,12.30
2022-10-19T17:05:23.667Z,12.30
2022-10-19T17:07:57.866Z,12.20
2022-10-19T17:10:49.666Z,12.20
2022-10-19T17:13:42.774Z,12.20
2022-10-19T17:16:36.151Z,12.10
2022-10-19T17:19:14.427Z,12.00
2022-10-19T17:25:20.024Z,12.00
2022-10-19T17:30:55.388Z,11.90
2022-10-19T17:33:45.821Z,11.90
2022-10-19T17:47:29.243Z,11.80
2022-10-19T18:08:00.252Z,11.60
2022-10-19T18:10:53.851Z,11.60
2022-10-19T18:13:31.349Z,11.60
2022-10-19T18:16:41.478Z,11.60
2022-10-19T18:21:56.636Z,11.50
2022-10-19T18:24:37.559Z,11.50
2022-10-19T18:27:33.502Z,11.50
2022-10-19T18:30:20.388Z,11.50
2022-10-19T18:33:04.935Z,11.50
2022-10-19T18:35:47.760Z,11.50
2022-10-19T18:38:15.600Z,11.40
2022-10-19T18:40:45.793Z,11.40
2022-10-19T18:43:42.740Z,11.40
2022-10-19T18:49:03.276Z,11.40
2022-10-19T18:51:33.759Z,11.40
2022-10-19T18:54:01.792Z,11.40
2022-10-19T18:56:32.903Z,11.40
2022-10-19T19:01:37.120Z,11.30
2022-10-19T19:04:12.449Z,11.20
2022-10-19T19:10:03.119Z,11.10
2022-10-19T19:12:32.271Z,11.00
2022-10-19T19:15:00.180Z,11.00
2022-10-19T19:17:29.375Z,11.00
2022-10-19T19:19:57.202Z,10.90
2022-10-19T19:22:26.093Z,10.90
2022-10-19T19:24:54.160Z,10.90
2022-10-19T19:27:26.163Z,10.90
2022-10-19T19:29:58.404Z,10.90
2022-10-19T19:32:26.246Z,10.90
2022-10-19T19:34:55.556Z,10.80
2022-10-19T19:37:23.863Z,10.80
2022-10-19T19:39:51.719Z,10.70
2022-10-19T19:42:21.460Z,10.70
2022-10-19T19:44:51.129Z,10.70
2022-10-19T19:47:19.750Z,10.70
2022-10-19T19:49:47.626Z,10.70
2022-10-19T19:52:16.819Z,10.70
2022-10-19T19:54:44.659Z,10.70
2022-10-19T19:57:12.545Z,10.70
2022-10-19T19:59:40.405Z,10.70
2022-10-19T20:02:08.321Z,10.60
2022-10-19T20:04:36.345Z,10.60
2022-10-19T20:07:04.227Z,10.60
2022-10-19T20:09:34.526Z,10.50
2022-10-19T20:12:02.367Z,10.50
2022-10-19T20:14:30.381Z,10.50
2022-10-19T20:16:58.231Z,10.40
2022-10-19T20:19:26.054Z,10.40
2022-10-19T20:21:56.202Z,10.40
2022-10-19T20:24:24.037Z,10.40
2022-10-19T20:26:53.240Z,10.30
2022-10-19T20:29:22.174Z,10.30
2022-10-19T20:31:50.001Z,10.30
2022-10-19T20:34:23.140Z,10.30
2022-10-19T20:36:51.857Z,10.20
2022-10-19T20:39:19.719Z,10.20
2022-10-19T20:41:47.571Z,10.20
2022-10-19T20:44:16.819Z,10.10
2022-10-19T20:46:44.798Z,10.20
2022-10-19T20:49:13.508Z,10.10
2022-10-19T20:51:41.301Z,10.10
2022-10-19T20:54:12.481Z,10.10
2022-10-19T20:56:41.872Z,10.00
2022-10-19T20:59:12.723Z,10.00
2022-10-19T21:01:43.521Z,10.00
2022-10-19T21:04:14.366Z,10.00
2022-10-19T21:06:44.051Z,10.00
2022-10-19T21:09:13.109Z,10.00
2022-10-19T21:11:42.722Z,9.90
2022-10-19T21:14:13.988Z,9.90
2022-10-19T21:16:43.710Z,9.90
2022-10-19T21:19:14.225Z,9.90
2022-10-19T21:21:44.079Z,9.90
2022-10-19T21:24:13.520Z,9.90
2022-10-19T21:26:41.826Z,9.90
2022-10-19T21:29:11.141Z,9.90
2022-10-19T21:31:42.176Z,9.90
2022-10-19T21:34:15.776Z,9.90
2022-10-19T21:36:44.069Z,9.90
2022-10-19T21:39:11.992Z,9.80
2022-10-19T21:41:39.822Z,9.90
2022-10-19T21:44:07.876Z,9.80
2022-10-19T21:46:35.671Z,9.80
2022-10-19T21:49:03.633Z,9.80
2022-10-19T21:51:37.029Z,9.80
2022-10-19T21:54:07.101Z,9.80
2022-10-19T21:56:35.821Z,9.80
2022-10-19T21:59:03.812Z,9.80
2022-10-19T22:01:37.205Z,9.80
2022-10-19T22:04:11.698Z,9.80
2022-10-19T22:06:41.230Z,9.80
2022-10-19T22:09:11.398Z,9.80
2022-10-19T22:11:39.262Z,9.80
2022-10-19T22:14:07.097Z,9.80
2022-10-19T22:16:36.834Z,9.80
2022-10-19T22:19:05.989Z,9.70
2022-10-19T22:21:35.129Z,9.70
2022-10-19T22:24:06.593Z,9.70
2022-10-19T22:26:36.802Z,9.70
2022-10-19T22:29:06.835Z,9.70
2022-10-19T22:31:35.864Z,9.70
2022-10-19T22:34:05.604Z,9.60
2022-10-19T22:36:33.535Z,9.60
2022-10-19T22:39:01.422Z,9.50
2022-10-19T22:42:07.378Z,9.50
2022-10-19T22:44:35.274Z,9.50
2022-10-19T22:47:03.147Z,9.40
2022-10-19T22:49:30.999Z,9.40
2022-10-19T22:51:58.840Z,9.40
2022-10-19T22:54:26.759Z,9.40
2022-10-19T22:56:54.624Z,9.30
2022-10-19T22:59:23.873Z,9.30
2022-10-19T23:01:51.881Z,9.30
2022-10-19T23:04:19.959Z,9.30
2022-10-19T23:06:47.882Z,9.30
2022-10-19T23:09:15.808Z,9.30
2022-10-19T23:11:43.702Z,9.30
2022-10-19T23:14:11.623Z,9.30
2022-10-19T23:16:40.809Z,9.20
2022-10-19T23:19:08.674Z,9.20
2022-10-19T23:21:36.541Z,9.20
2022-10-19T23:24:04.623Z,9.20
2022-10-19T23:26:32.525Z,9.20
2022-10-19T23:29:00.388Z,9.20
2022-10-19T23:31:30.238Z,9.20
2022-10-19T23:33:59.460Z,9.20
2022-10-19T23:36:29.455Z,9.20
2022-10-19T23:38:58.843Z,9.20
2022-10-19T23:41:26.714Z,9.10
2022-10-19T23:43:54.692Z,9.10
2022-10-19T23:46:22.555Z,9.10
2022-10-19T23:48:50.458Z,9.10
2022-10-19T23:51:21.514Z,9.10
2022-10-19T23:53:51.088Z,9.10
2022-10-19T23:56:20.861Z,9.10
2022-10-19T23:58:49.369Z,9.10
